Loran, Illinois
Current Conditions -  °F | °C
As of 9:15 AM on Friday 31 Oct 2014 (Local Time) from KFEP Reporting Station
Broken Clouds Broken Clouds  
Wind Chill: 23°   Ceiling: 3400
Heat Index: 35°   Visibility: 10mi
Dew Point: 22°   Wind: 21mph
Humidity: 60%   Direction: 360°N
Pressure: 30.27"   Gusts: 33mph
Location:  42.2523°N, 89.8438°W
Report Text: KFEP 311415Z AUTO 36018G29KT 10SM BKN034 01/M06 A3027 RMK AO2 T00141056
Loading
Personal Weather Stations






























Interactive Weather Map
Tropical Storm Tracking
New forecast layout! Learn more

10-Day Weather Forecast

Advertisements
Track Severe Weather on mobile